Time;durP1;ratioP1;P1;durP2;ratioP2;P2;SDS_P1;SDS_P2;PMS_P1;PMS_P2;Temp;Humidity;BMP_temperature;BMP_pressure;BME280_temperature;BME280_humidity;BME280_pressure;Samples;Min_cycle;Max_cycle;Signal;HPM_P1;HPM_P2
2022/07/05 00:02:05;;;;;;;2.85;2.20;;;;;;;25.81;nan;95361.88;6266636;22;20011;-83
2022/07/05 00:04:31;;;;;;;5.93;2.38;;;;;;;25.07;nan;95237.41;6270175;22;20065;-83
2022/07/05 00:09:40;;;;;;;9.00;2.47;;;;;;;25.75;nan;95324.16;6262304;22;20294;-84
2022/07/05 00:12:06;;;;;;;9.27;2.63;;;;;;;26.01;nan;95371.50;6259648;22;20019;-83
2022/07/05 00:14:32;;;;;;;7.60;2.90;;;;;;;25.18;nan;95241.06;6260695;22;20069;-83
2022/07/05 00:16:57;;;;;;;3.85;2.50;;;;;;;25.28;nan;95281.16;6259375;22;20409;-83
2022/07/05 00:19:22;;;;;;;4.75;2.88;;;;;;;25.03;nan;95260.97;6262422;22;20080;-84
2022/07/05 00:21:48;;;;;;;8.00;3.15;;;;;;;24.95;nan;95243.00;6259633;22;20142;-84
2022/07/05 00:24:13;;;;;;;9.10;3.75;;;;;;;25.48;nan;95319.09;6259568;22;20447;-84
2022/07/05 00:26:39;;;;;;;12.25;3.72;;;;;;;23.49;nan;95033.75;6260324;22;20018;-83
2022/07/05 00:29:04;;;;;;;11.60;3.22;;;;;;;25.20;nan;95322.13;6261955;22;20023;-83
2022/07/05 00:31:30;;;;;;;11.88;3.17;;;;;;;25.52;nan;95338.91;6262196;22;20011;-84
2022/07/05 00:33:55;;;;;;;13.45;3.40;;;;;;;24.91;nan;95244.91;6262222;22;20015;-83
2022/07/05 00:36:21;;;;;;;7.18;3.38;;;;;;;25.37;nan;95335.97;6262385;22;20016;-83
2022/07/05 00:38:46;;;;;;;13.13;4.47;;;;;;;24.78;nan;95232.66;6259714;22;20415;-83
2022/07/05 00:41:11;;;;;;;9.88;4.18;;;;;;;25.41;nan;95330.59;6260801;22;20015;-83
2022/07/05 00:43:37;;;;;;;10.13;4.00;;;;;;;24.86;nan;95275.03;6260146;22;20046;-83
2022/07/05 00:46:02;;;;;;;9.32;4.47;;;;;;;25.29;nan;95334.28;6260425;22;20022;-83
2022/07/05 00:48:28;;;;;;;11.65;4.75;;;;;;;25.28;nan;95350.94;6262711;22;20328;-84
2022/07/05 00:50:53;;;;;;;9.98;4.03;;;;;;;25.37;nan;95349.56;6262248;22;20011;-83
2022/07/05 00:53:19;;;;;;;6.22;3.65;;;;;;;24.60;nan;95268.38;6262613;22;20092;-83
2022/07/05 00:55:45;;;;;;;7.75;3.97;;;;;;;24.79;nan;95308.22;6261542;22;20016;-83
2022/07/05 00:58:11;;;;;;;6.45;3.05;;;;;;;24.00;nan;95212.25;6261420;22;20476;-83
2022/07/05 01:00:37;;;;;;;10.80;3.63;;;;;;;24.47;nan;95285.97;6263337;22;20003;-83
2022/07/05 01:03:04;;;;;;;7.63;3.42;;;;;;;24.53;nan;95273.66;6234283;22;20012;-83
2022/07/05 01:05:31;;;;;;;4.95;3.28;;;;;;;24.85;nan;95324.97;6261727;22;20011;-84
2022/07/05 01:08:00;;;;;;;7.30;2.90;;;;;;;24.50;nan;95274.38;6262105;22;20469;-83
2022/07/05 01:10:27;;;;;;;6.80;2.90;;;;;;;24.89;nan;95334.75;6233713;22;20530;-83
2022/07/05 01:12:53;;;;;;;9.02;3.78;;;;;;;24.85;nan;95328.47;6235511;22;20301;-83
2022/07/05 01:15:21;;;;;;;4.78;3.50;;;;;;;24.55;nan;95286.88;6266386;22;20011;-83
2022/07/05 01:17:47;;;;;;;13.00;3.60;;;;;;;25.10;nan;95363.44;6243353;22;20462;-83
2022/07/05 01:20:13;;;;;;;6.22;2.90;;;;;;;24.18;nan;95249.34;6267883;22;20010;-83
2022/07/05 01:22:55;;;;;;;11.93;2.97;;;;;;;24.62;nan;95303.25;6237811;22;20018;-83
2022/07/05 01:25:22;;;;;;;9.95;2.78;;;;;;;24.73;nan;95317.78;6268081;22;20112;-83
2022/07/05 01:27:49;;;;;;;5.93;2.78;;;;;;;24.97;nan;95371.72;6238801;22;20038;-83
2022/07/05 01:30:15;;;;;;;5.78;2.63;;;;;;;24.88;nan;95365.72;6263600;22;20038;-83
2022/07/05 01:32:40;;;;;;;4.43;2.45;;;;;;;23.99;nan;95248.59;6234866;22;20075;-82
2022/07/05 01:35:07;;;;;;;10.07;2.25;;;;;;;24.50;nan;95316.97;6261846;22;20129;-82
2022/07/05 01:37:33;;;;;;;5.00;2.70;;;;;;;24.38;nan;95298.94;6262881;22;20007;-83
2022/07/05 01:40:02;;;;;;;14.35;2.60;;;;;;;24.90;nan;95376.22;6260198;22;20073;-83
2022/07/05 01:42:28;;;;;;;7.60;2.47;;;;;;;24.66;nan;95365.69;6235035;22;20026;-83
2022/07/05 01:44:54;;;;;;;7.68;2.58;;;;;;;24.15;nan;95277.19;6234800;22;20012;-82
2022/07/05 01:47:19;;;;;;;9.23;2.80;;;;;;;24.31;nan;95319.69;6261584;22;20008;-82
2022/07/05 01:49:47;;;;;;;6.97;2.67;;;;;;;24.32;nan;95319.34;6231794;22;20016;-82
2022/07/05 01:52:16;;;;;;;5.25;2.47;;;;;;;23.91;nan;95257.72;6232340;22;20450;-82
2022/07/05 01:54:41;;;;;;;7.00;2.17;;;;;;;24.05;nan;95290.50;6232433;22;20022;-82
2022/07/05 01:57:07;;;;;;;8.25;2.17;;;;;;;24.37;nan;95318.28;6259454;22;20377;-82
2022/07/05 01:59:34;;;;;;;10.68;2.28;;;;;;;24.67;nan;95361.84;6232756;22;20456;-82
2022/07/05 02:02:00;;;;;;;5.57;2.13;;;;;;;24.72;nan;95364.28;6259739;22;20439;-82
2022/07/05 02:04:26;;;;;;;9.20;2.28;;;;;;;24.51;nan;95323.97;6259234;22;20011;-82
2022/07/05 02:06:51;;;;;;;10.57;2.78;;;;;;;24.02;nan;95239.75;6259446;22;20465;-82
2022/07/05 02:09:17;;;;;;;8.35;2.33;;;;;;;23.90;nan;95246.09;6232719;22;20022;-82
2022/07/05 02:11:42;;;;;;;8.27;2.25;;;;;;;24.11;nan;95268.19;6231774;22;20108;-82
2022/07/05 02:14:07;;;;;;;8.48;2.67;;;;;;;24.58;nan;95345.78;6233002;22;20018;-82
2022/07/05 02:16:33;;;;;;;9.10;2.53;;;;;;;24.68;nan;95356.06;6232652;22;20130;-82
2022/07/05 02:18:59;;;;;;;6.82;2.13;;;;;;;24.41;nan;95321.84;6232430;22;20012;-83
2022/07/05 02:21:25;;;;;;;6.78;2.50;;;;;;;23.94;nan;95263.22;6258585;22;20089;-84
2022/07/05 02:23:51;;;;;;;4.53;2.42;;;;;;;24.54;nan;95364.72;6260022;22;20065;-83
2022/07/05 02:26:16;;;;;;;7.13;2.25;;;;;;;23.78;nan;95260.56;6256371;22;20057;-82
2022/07/05 02:28:42;;;;;;;9.82;2.75;;;;;;;24.11;nan;95291.78;6232258;22;20075;-83
2022/07/05 02:31:08;;;;;;;5.85;2.72;;;;;;;24.07;nan;95307.19;6231338;22;20355;-82
2022/07/05 02:33:33;;;;;;;4.78;2.50;;;;;;;24.38;nan;95364.00;6259294;22;20016;-82
2022/07/05 02:36:12;;;;;;;7.15;3.05;;;;;;;24.44;nan;95373.41;6231198;22;20517;-83
2022/07/05 02:38:38;;;;;;;9.50;3.00;;;;;;;23.87;nan;95289.38;6259499;22;20018;-83
2022/07/05 02:41:08;;;;;;;9.88;3.53;;;;;;;24.40;nan;95377.97;6231919;22;20093;-83
2022/07/05 02:43:35;;;;;;;7.18;3.45;;;;;;;23.90;nan;95313.00;6259506;22;20093;-83
2022/07/05 02:46:01;;;;;;;11.10;3.40;;;;;;;23.72;nan;95291.78;6259096;22;20410;-83
2022/07/05 02:48:27;;;;;;;5.28;3.28;;;;;;;24.20;nan;95384.50;6230586;22;20023;-83
2022/07/05 02:50:53;;;;;;;5.82;3.45;;;;;;;23.30;nan;95237.44;6258738;22;20024;-83
2022/07/05 02:53:19;;;;;;;9.57;3.53;;;;;;;23.83;nan;95329.91;6259246;22;20038;-83
2022/07/05 02:55:44;;;;;;;12.60;3.08;;;;;;;23.76;nan;95317.00;6231739;22;20109;-83
2022/07/05 02:58:10;;;;;;;8.95;3.70;;;;;;;23.54;nan;95303.34;6246838;22;20030;-83
2022/07/05 03:00:35;;;;;;;10.68;3.40;;;;;;;23.47;nan;95309.34;6259619;22;20019;-83
2022/07/05 03:03:01;;;;;;;13.18;4.22;;;;;;;23.93;nan;95386.22;6260291;22;20351;-83
2022/07/05 03:05:27;;;;;;;13.73;3.83;;;;;;;22.79;nan;95206.13;6260067;22;20003;-83
2022/07/05 03:07:53;;;;;;;9.32;3.83;;;;;;;23.69;nan;95351.25;6259699;22;20019;-83
2022/07/05 03:10:18;;;;;;;7.90;3.75;;;;;;;23.64;nan;95338.78;6258889;22;20106;-82
2022/07/05 03:12:44;;;;;;;9.05;3.92;;;;;;;23.91;nan;95390.41;6258869;22;20093;-83
2022/07/05 03:15:10;;;;;;;7.65;3.70;;;;;;;23.79;nan;95389.41;6257924;22;20363;-83
2022/07/05 03:17:35;;;;;;;13.20;4.05;;;;;;;23.54;nan;95365.59;6256904;22;20054;-83
2022/07/05 03:20:01;;;;;;;10.00;3.67;;;;;;;23.77;nan;95385.47;6259572;22;20466;-83
2022/07/05 03:22:26;;;;;;;11.48;4.10;;;;;;;23.77;nan;95385.47;6257312;22;20015;-83
2022/07/05 03:24:51;;;;;;;8.30;3.58;;;;;;;22.76;nan;95377.13;6257672;22;20094;-83
2022/07/05 03:27:17;;;;;;;15.27;4.30;;;;;;;22.20;nan;95331.94;6260206;22;20017;-83
2022/07/05 03:29:42;;;;;;;11.10;3.45;;;;;;;22.97;nan;95386.56;6259690;22;20523;-83
2022/07/05 03:32:08;;;;;;;8.60;3.58;;;;;;;22.67;nan;95329.38;6258147;22;20056;-83
2022/07/05 03:34:33;;;;;;;6.68;2.65;;;;;;;23.00;nan;95377.00;6258827;22;20095;-82
2022/07/05 03:36:59;;;;;;;8.82;3.45;;;;;;;22.54;nan;95276.53;6257726;22;20394;-83
2022/07/05 03:39:24;;;;;;;11.05;3.42;;;;;;;22.88;nan;95318.38;6259755;22;20020;-83
2022/07/05 03:41:49;;;;;;;14.52;3.97;;;;;;;23.31;nan;95390.53;6259423;22;20008;-83
2022/07/05 03:44:15;;;;;;;8.20;3.58;;;;;;;22.58;nan;95253.06;6259493;22;20012;-83
2022/07/05 03:46:40;;;;;;;14.13;4.00;;;;;;;23.40;nan;95366.03;6258104;22;20027;-83
2022/07/05 03:49:06;;;;;;;14.18;3.80;;;;;;;23.17;nan;95310.94;6257034;22;20020;-83
2022/07/05 03:51:31;;;;;;;11.52;3.58;;;;;;;23.40;nan;95345.16;6258522;22;20021;-83
2022/07/05 03:53:57;;;;;;;20.67;3.88;;;;;;;23.18;nan;95299.00;6258364;22;20511;-82
2022/07/05 03:56:23;;;;;;;13.00;3.85;;;;;;;23.78;nan;95379.72;6259108;22;20035;-83
2022/07/05 03:58:52;;;;;;;7.55;4.22;;;;;;;23.79;nan;95365.03;6258285;22;20028;-83
2022/07/05 04:01:18;;;;;;;11.35;3.92;;;;;;;23.57;nan;95373.03;6259171;22;20018;-83
2022/07/05 04:03:43;;;;;;;12.63;4.10;;;;;;;23.53;nan;95388.38;6260132;22;20008;-83
2022/07/05 04:06:10;;;;;;;12.05;3.88;;;;;;;22.83;nan;95255.63;6261308;22;20483;-83
2022/07/05 04:08:35;;;;;;;13.82;3.92;;;;;;;23.64;nan;95379.38;6231814;22;20077;-83
2022/07/05 04:11:01;;;;;;;11.25;4.05;;;;;;;22.80;nan;95238.22;6232096;22;20027;-83
2022/07/05 04:13:26;;;;;;;13.55;4.40;;;;;;;22.49;nan;95194.94;6259472;22;20328;-82
2022/07/05 04:15:53;;;;;;;12.30;4.05;;;;;;;23.24;nan;95305.72;6231226;22;20404;-82
2022/07/05 04:18:18;;;;;;;17.08;3.78;;;;;;;23.00;nan;95249.88;6257711;22;20022;-83
2022/07/05 04:20:44;;;;;;;12.85;3.70;;;;;;;23.85;nan;95376.38;6230586;22;20011;-82
2022/07/05 04:23:09;;;;;;;10.30;4.05;;;;;;;23.14;nan;95250.22;6231395;22;20047;-83
2022/07/05 04:25:35;;;;;;;17.25;3.80;;;;;;;23.58;nan;95336.66;6230150;22;20050;-83
2022/07/05 04:28:00;;;;;;;8.50;3.80;;;;;;;23.80;nan;95387.50;6259077;22;20015;-83
2022/07/05 04:30:26;;;;;;;13.35;3.95;;;;;;;23.63;nan;95390.56;6258923;22;20019;-83
2022/07/05 04:32:51;;;;;;;11.68;3.92;;;;;;;23.15;nan;95305.09;6258994;22;20509;-83
2022/07/05 04:35:17;;;;;;;17.98;4.18;;;;;;;23.51;nan;95382.53;6230885;22;20374;-83
2022/07/05 04:37:43;;;;;;;16.05;3.78;;;;;;;22.22;nan;95247.88;6231495;22;20015;-83
2022/07/05 04:40:11;;;;;;;13.25;4.13;;;;;;;22.16;nan;95250.03;6257924;22;20019;-82
2022/07/05 04:42:37;;;;;;;13.20;4.32;;;;;;;23.02;nan;95391.75;6230911;22;20081;-83
2022/07/05 04:45:03;;;;;;;11.43;4.05;;;;;;;22.30;nan;95280.13;6230903;22;20023;-83
2022/07/05 04:47:28;;;;;;;13.68;5.03;;;;;;;23.09;nan;95369.50;6258801;22;20472;-83
2022/07/05 04:49:56;;;;;;;11.25;4.18;;;;;;;22.26;nan;95257.66;6232103;22;20039;-83
2022/07/05 04:52:22;;;;;;;18.35;4.65;;;;;;;22.64;nan;95275.22;6231600;22;20039;-83
2022/07/05 04:54:47;;;;;;;17.67;4.57;;;;;;;22.91;nan;95325.78;6231548;22;20046;-83
2022/07/05 04:57:13;;;;;;;27.83;4.63;;;;;;;22.84;nan;95303.97;6226753;22;20039;-82
2022/07/05 04:59:38;;;;;;;14.60;4.35;;;;;;;22.77;nan;95333.53;6256227;22;20340;-83
2022/07/05 05:02:04;;;;;;;28.77;5.15;;;;;;;23.05;nan;95328.81;6252490;22;20410;-82
2022/07/05 05:04:29;;;;;;;22.85;5.30;;;;;;;23.13;nan;95331.72;6253300;22;20532;-83
2022/07/05 05:06:55;;;;;;;19.00;4.75;;;;;;;22.83;nan;95288.88;6256593;22;20019;-82
2022/07/05 05:09:20;;;;;;;16.52;4.63;;;;;;;23.01;nan;95306.34;6257870;22;20596;-82
2022/07/05 05:11:46;;;;;;;12.27;4.15;;;;;;;23.05;nan;95306.41;6255025;22;20186;-83
2022/07/05 05:14:12;;;;;;;28.13;5.15;;;;;;;23.58;nan;95383.47;6257559;22;20099;-82
2022/07/05 05:16:37;;;;;;;13.05;4.47;;;;;;;23.57;nan;95359.50;6254391;22;20469;-83
2022/07/05 05:19:03;;;;;;;18.00;4.45;;;;;;;23.87;nan;95393.06;6255960;22;20463;-83
2022/07/05 05:21:28;;;;;;;10.00;4.30;;;;;;;23.48;nan;95340.72;6257402;22;20086;-83
2022/07/05 05:23:54;;;;;;;17.25;4.97;;;;;;;23.31;nan;95289.63;6256661;22;20016;-82
2022/07/05 05:26:19;;;;;;;10.35;4.53;;;;;;;23.46;nan;95338.34;6257902;22;20221;-83
2022/07/05 05:28:45;;;;;;;15.10;4.75;;;;;;;23.78;nan;95393.25;6258071;22;20018;-82
2022/07/05 05:31:10;;;;;;;22.80;5.60;;;;;;;23.88;nan;95393.84;6255265;22;20373;-82
2022/07/05 05:33:36;;;;;;;11.93;4.88;;;;;;;22.92;nan;95284.06;6255971;22;20050;-83
2022/07/05 05:36:02;;;;;;;20.63;5.10;;;;;;;23.03;nan;95312.19;6255815;22;20347;-82
2022/07/05 05:38:28;;;;;;;23.65;5.32;;;;;;;23.48;nan;95356.97;6256417;22;20012;-82
2022/07/05 05:40:53;;;;;;;10.20;5.32;;;;;;;23.50;nan;95321.44;6254795;22;20476;-83
2022/07/05 05:43:18;;;;;;;17.05;5.07;;;;;;;23.84;nan;95364.75;6254760;22;20023;-82
2022/07/05 05:45:44;;;;;;;10.35;4.13;;;;;;;23.91;nan;95369.53;6281130;22;20484;-82
2022/07/05 05:48:09;;;;;;;19.77;5.45;;;;;;;23.14;nan;95246.72;6256713;22;20043;-82
2022/07/05 05:50:38;;;;;;;22.58;5.10;;;;;;;23.77;nan;95366.53;6259034;22;20046;-82
2022/07/05 05:53:04;;;;;;;21.50;5.15;;;;;;;24.04;nan;95395.38;6257530;22;20011;-82
2022/07/05 05:55:31;;;;;;;22.38;5.15;;;;;;;23.74;nan;95348.25;6257912;22;20065;-83
2022/07/05 05:58:09;;;;;;;14.55;4.90;;;;;;;23.67;nan;95323.72;6255251;22;20035;-82
2022/07/05 06:00:35;;;;;;;17.15;5.03;;;;;;;24.31;nan;95396.38;6255862;22;20099;-83
2022/07/05 06:03:00;;;;;;;20.30;5.05;;;;;;;24.00;nan;95372.84;6255571;22;20043;-82
2022/07/05 06:05:26;;;;;;;19.42;4.57;;;;;;;24.23;nan;95397.38;6254286;22;20020;-82
2022/07/05 06:07:55;;;;;;;29.15;5.00;;;;;;;24.03;nan;95395.75;6256710;22;20083;-83
2022/07/05 06:10:23;;;;;;;15.30;5.18;;;;;;;23.68;nan;95334.22;6256448;22;20111;-82
2022/07/05 06:12:49;;;;;;;15.98;5.28;;;;;;;23.99;nan;95400.28;6254383;22;20007;-81
2022/07/05 06:15:15;;;;;;;21.30;5.38;;;;;;;23.46;nan;95324.81;6258221;22;20434;-82
2022/07/05 06:17:41;;;;;;;13.85;4.72;;;;;;;23.76;nan;95365.72;6259013;22;20011;-82
2022/07/05 06:20:09;;;;;;;17.00;4.63;;;;;;;23.59;nan;95335.53;6256346;22;20542;-82
2022/07/05 06:22:34;;;;;;;28.20;5.95;;;;;;;23.64;nan;95329.88;6255345;22;20164;-83
2022/07/05 06:25:00;;;;;;;14.27;5.03;;;;;;;23.43;nan;95284.91;6258303;22;20011;-82
2022/07/05 06:27:25;;;;;;;13.65;4.68;;;;;;;23.95;nan;95350.69;6256654;22;20454;-83
2022/07/05 06:29:51;;;;;;;12.73;4.88;;;;;;;23.53;nan;95307.97;6258875;22;20348;-83
2022/07/05 06:32:16;;;;;;;15.75;5.10;;;;;;;23.69;nan;95338.50;6258856;22;20043;-83
2022/07/05 06:34:42;;;;;;;13.18;5.30;;;;;;;23.94;nan;95376.19;6259637;22;20012;-83
2022/07/05 06:37:07;;;;;;;16.50;4.70;;;;;;;23.93;nan;95363.78;6256680;22;20305;-83
2022/07/05 06:39:33;;;;;;;14.05;5.55;;;;;;;23.62;nan;95281.50;6258306;22;20015;-83
2022/07/05 06:41:59;;;;;;;14.45;4.75;;;;;;;24.45;nan;95404.78;6281281;22;20026;-83
2022/07/05 06:44:24;;;;;;;14.05;4.43;;;;;;;23.99;nan;95322.50;6249622;22;20529;-83
2022/07/05 06:46:50;;;;;;;15.20;5.43;;;;;;;24.60;nan;95397.72;6258775;22;20033;-83
2022/07/05 06:49:15;;;;;;;14.45;5.28;;;;;;;24.77;nan;95391.88;6257904;22;20122;-82
2022/07/05 06:51:41;;;;;;;13.60;5.28;;;;;;;24.22;nan;95285.47;6259309;22;20038;-82
2022/07/05 06:54:06;;;;;;;12.60;5.35;;;;;;;24.91;nan;95389.47;6256934;22;20035;-83
2022/07/05 06:56:32;;;;;;;11.63;5.28;;;;;;;25.06;nan;95387.00;6256845;22;20019;-83
2022/07/05 06:58:57;;;;;;;21.73;6.38;;;;;;;24.94;nan;95379.81;6257523;22;20027;-83
2022/07/05 07:01:22;;;;;;;17.98;5.35;;;;;;;24.54;nan;95301.56;6259132;22;20054;-83
2022/07/05 07:03:48;;;;;;;15.45;4.68;;;;;;;24.26;nan;95265.81;6259641;22;20042;-83
2022/07/05 07:06:15;;;;;;;15.43;4.85;;;;;;;25.12;nan;95378.19;6258876;22;20012;-83
2022/07/05 07:11:24;;;;;;;15.23;4.60;;;;;;;24.65;nan;95315.31;6259058;22;20054;-83
2022/07/05 07:13:49;;;;;;;13.80;5.15;;;;;;;24.53;nan;95270.16;6259089;22;20007;-83
2022/07/05 07:16:15;;;;;;;22.65;5.90;;;;;;;25.27;nan;95352.09;6256106;22;20019;-83
2022/07/05 07:18:40;;;;;;;11.27;4.80;;;;;;;25.14;nan;95346.06;6256920;22;20016;-83
2022/07/05 07:21:06;;;;;;;11.77;4.90;;;;;;;25.30;nan;95337.78;6259082;22;20489;-83
2022/07/05 07:23:31;;;;;;;22.33;5.35;;;;;;;25.69;nan;95382.69;6257628;22;20015;-84
2022/07/05 07:25:57;;;;;;;9.85;4.22;;;;;;;25.30;nan;95316.88;6255558;22;20106;-82
2022/07/05 07:28:23;;;;;;;13.65;4.50;;;;;;;25.44;nan;95332.59;6258561;22;20350;-83
2022/07/05 07:30:49;;;;;;;16.05;4.60;;;;;;;25.32;nan;95355.31;6255146;22;20016;-82
2022/07/05 07:33:14;;;;;;;20.42;5.15;;;;;;;24.63;nan;95249.81;6248562;22;20018;-82
2022/07/05 07:35:40;;;;;;;18.48;4.20;;;;;;;24.98;nan;95310.91;6251193;22;20012;-83
2022/07/05 07:38:06;;;;;;;13.85;4.35;;;;;;;24.86;nan;95267.66;6255008;22;20016;-83
2022/07/05 07:40:31;;;;;;;11.55;4.03;;;;;;;25.75;nan;95380.44;6256294;22;20302;-83
2022/07/05 07:42:57;;;;;;;13.18;4.53;;;;;;;25.40;nan;95296.47;6254530;22;20026;-83
2022/07/05 07:45:22;;;;;;;14.07;4.15;;;;;;;25.56;nan;95293.56;6253253;22;20108;-82
2022/07/05 07:47:47;;;;;;;9.68;4.13;;;;;;;26.22;nan;95371.00;6250919;22;20608;-82
2022/07/05 07:50:13;;;;;;;12.75;4.57;;;;;;;26.28;nan;95364.91;6256860;22;20039;-84
2022/07/05 07:52:40;;;;;;;16.10;5.18;;;;;;;25.87;nan;95314.22;6250713;22;20016;-82
2022/07/05 07:55:06;;;;;;;14.55;4.65;;;;;;;25.69;nan;95263.16;6255888;22;20101;-83
2022/07/05 07:57:31;;;;;;;15.30;4.78;;;;;;;26.04;nan;95321.84;6255286;22;20285;-82
2022/07/05 07:59:57;;;;;;;17.90;4.88;;;;;;;26.51;nan;95368.28;6223622;22;20069;-82
2022/07/05 08:02:22;;;;;;;18.15;5.07;;;;;;;26.40;nan;95333.94;6253704;22;20013;-83
2022/07/05 08:04:50;;;;;;;14.50;5.78;;;;;;;25.66;nan;95227.81;6226233;22;20024;-83
2022/07/05 08:07:17;;;;;;;18.02;4.65;;;;;;;26.36;nan;95330.41;6225719;22;20179;-83
2022/07/05 08:09:42;;;;;;;9.05;4.20;;;;;;;26.49;nan;95348.06;6224078;22;20015;-82
2022/07/05 08:12:08;;;;;;;11.77;4.70;;;;;;;26.24;nan;95314.34;6227122;22;20020;-82
2022/07/05 08:14:34;;;;;;;12.25;5.32;;;;;;;26.32;nan;95308.63;6254252;22;20093;-82
2022/07/05 08:16:59;;;;;;;12.88;5.28;;;;;;;26.36;nan;95297.78;6227748;22;20491;-83
2022/07/05 08:22:09;;;;;;;13.23;4.93;;;;;;;26.62;nan;95316.75;6256711;22;20025;-82
2022/07/05 08:24:41;;;;;;;16.38;5.25;;;;;;;27.07;nan;95352.97;6254764;22;20435;-81
2022/07/05 08:27:07;;;;;;;14.55;4.53;;;;;;;26.79;nan;95332.44;6224274;22;20015;-82
2022/07/05 08:29:33;;;;;;;14.48;4.85;;;;;;;26.96;nan;95358.31;6229544;22;20470;-82
2022/07/05 08:31:59;;;;;;;18.48;4.95;;;;;;;26.62;nan;95318.69;6228636;22;20059;-82
2022/07/05 08:34:24;;;;;;;17.15;5.50;;;;;;;26.46;nan;95267.22;6255411;22;20055;-83
2022/07/05 08:36:50;;;;;;;10.05;5.10;;;;;;;26.75;nan;95306.38;6227361;22;20015;-82
2022/07/05 08:39:17;;;;;;;13.40;5.28;;;;;;;26.35;nan;95225.53;6251009;22;20456;-83
2022/07/05 08:41:47;;;;;;;12.43;4.75;;;;;;;26.74;nan;95267.50;6252884;22;20114;-82
2022/07/05 08:44:15;;;;;;;17.35;5.40;;;;;;;26.78;nan;95273.75;6254454;22;20014;-83
2022/07/05 08:46:43;;;;;;;16.42;5.40;;;;;;;26.88;nan;95296.78;6226338;22;20425;-83
2022/07/05 08:49:10;;;;;;;11.23;4.93;;;;;;;26.61;nan;95230.84;6257355;22;20114;-83
2022/07/05 08:51:41;;;;;;;22.67;5.03;;;;;;;27.40;nan;95333.03;6233968;22;20020;-82
2022/07/05 08:54:11;;;;;;;17.77;5.53;;;;;;;27.46;nan;95328.81;6257206;22;20339;-83
2022/07/05 08:56:37;;;;;;;25.70;5.57;;;;;;;27.49;nan;95323.38;6259323;22;20038;-82
2022/07/05 08:59:03;;;;;;;13.50;4.93;;;;;;;27.14;nan;95271.38;6257880;22;20011;-83
2022/07/05 09:01:34;;;;;;;10.93;5.75;;;;;;;26.22;nan;95154.31;6229905;22;20193;-82
2022/07/05 09:04:05;;;;;;;9.37;4.73;;;;;;;27.05;nan;95266.25;6228826;22;20015;-82
2022/07/05 09:06:31;;;;;;;;;;;;;;;27.64;nan;95329.75;6230460;22;20481;-82
2022/07/05 09:08:58;;;;;;;14.52;4.63;;;;;;;27.73;nan;95323.97;6255740;22;19911;-83
2022/07/05 09:11:30;;;;;;;9.27;5.20;;;;;;;27.37;nan;95277.41;6230794;22;20020;-83
2022/07/05 09:13:56;;;;;;;15.23;4.90;;;;;;;27.48;nan;95294.56;6229635;22;20023;-82
2022/07/05 09:16:22;;;;;;;15.52;4.93;;;;;;;27.11;nan;95213.03;6256640;22;20007;-83
2022/07/05 09:18:56;;;;;;;17.48;5.38;;;;;;;27.60;nan;95271.75;6230488;22;20077;-83
2022/07/05 09:21:23;;;;;;;13.80;5.45;;;;;;;27.77;nan;95306.47;6257500;22;20027;-84
2022/07/05 09:23:56;;;;;;;9.55;5.10;;;;;;;27.96;nan;95300.75;6230960;22;20019;-83
2022/07/05 09:27:01;;;;;;;15.52;4.63;;;;;;;28.00;nan;95287.13;6229517;22;20011;-82
2022/07/05 09:29:26;;;;;;;13.65;6.13;;;;;;;27.99;nan;95250.16;6183417;22;20019;-82
2022/07/05 09:31:52;;;;;;;11.05;5.60;;;;;;;28.08;nan;95256.00;6230507;22;20533;-83
2022/07/05 09:34:19;;;;;;;15.07;4.85;;;;;;;28.44;nan;95292.41;6231144;22;20458;-83
2022/07/05 09:36:55;;;;;;;8.65;4.72;;;;;;;28.02;nan;95220.16;6258113;22;20453;-84
2022/07/05 09:39:36;;;;;;;7.68;3.95;;;;;;;28.13;nan;95231.13;6230938;22;20023;-83
2022/07/05 09:42:12;;;;;;;13.27;4.47;;;;;;;28.60;nan;95279.22;6257509;22;20022;-83
2022/07/05 09:44:38;;;;;;;8.52;4.10;;;;;;;28.47;nan;95255.38;6231685;22;20213;-82
2022/07/05 09:47:12;;;;;;;9.15;4.32;;;;;;;28.56;nan;95242.94;6231490;22;20477;-83
2022/07/05 09:49:40;;;;;;;11.23;4.60;;;;;;;28.75;nan;95181.78;6232242;22;20465;-83
2022/07/05 09:52:06;;;;;;;12.90;4.47;;;;;;;30.03;nan;95266.34;6233612;22;20031;-83
2022/07/05 09:54:32;;;;;;;14.70;4.78;;;;;;;30.64;nan;95232.84;6262396;22;20012;-84
2022/07/05 09:56:58;;;;;;;10.15;4.20;;;;;;;32.05;nan;95275.88;6260702;22;20024;-84
2022/07/05 09:59:23;;;;;;;16.23;4.60;;;;;;;32.44;nan;95182.09;6233043;22;20022;-83
2022/07/05 10:01:49;;;;;;;11.55;4.90;;;;;;;33.11;nan;95170.09;6233107;22;20027;-83
2022/07/05 10:04:15;;;;;;;14.35;4.50;;;;;;;34.23;nan;95184.13;6233478;22;20011;-83
2022/07/05 10:06:42;;;;;;;13.23;4.43;;;;;;;35.06;nan;95246.00;6233557;22;20090;-83
2022/07/05 10:09:10;;;;;;;17.77;5.30;;;;;;;35.88;nan;95263.28;6233569;22;20500;-83
2022/07/05 10:11:40;;;;;;;13.50;5.32;;;;;;;35.90;nan;95205.69;6234525;22;20016;-83
2022/07/05 10:14:14;;;;;;;20.35;5.03;;;;;;;36.62;nan;95247.38;6233485;22;20044;-83
2022/07/05 10:16:45;;;;;;;12.07;4.90;;;;;;;36.93;nan;95186.84;6233683;22;20091;-83
2022/07/05 10:19:16;;;;;;;9.02;4.43;;;;;;;37.55;nan;95220.38;6233354;22;20135;-83
2022/07/05 10:21:42;;;;;;;13.68;5.45;;;;;;;37.51;nan;95171.91;6233118;22;20008;-83
2022/07/05 10:24:08;;;;;;;10.98;4.80;;;;;;;37.68;nan;95179.63;6233257;22;20039;-83
2022/07/05 10:26:33;;;;;;;10.68;4.80;;;;;;;37.98;nan;95202.31;6233584;22;20039;-83
2022/07/05 10:29:00;;;;;;;14.95;5.13;;;;;;;38.09;nan;95197.16;6233568;22;20092;-83
2022/07/05 10:31:27;;;;;;;14.60;4.75;;;;;;;38.42;nan;95236.31;6233049;22;20430;-83
2022/07/05 10:33:55;;;;;;;9.10;5.15;;;;;;;38.10;nan;95193.94;6260140;22;20004;-83
2022/07/05 10:36:21;;;;;;;11.60;5.57;;;;;;;38.19;nan;95184.94;6233532;22;20469;-83
2022/07/05 10:38:47;;;;;;;16.80;4.70;;;;;;;38.38;nan;95216.25;6232751;22;20073;-83
2022/07/05 10:41:17;;;;;;;12.15;4.78;;;;;;;37.84;nan;95106.72;6261307;22;20007;-84
2022/07/05 10:43:42;;;;;;;12.55;5.03;;;;;;;38.14;nan;95197.38;6261472;22;20019;-84
2022/07/05 10:46:08;;;;;;;14.40;4.90;;;;;;;38.19;nan;95168.31;6259104;22;20102;-83
2022/07/05 10:48:34;;;;;;;11.15;4.63;;;;;;;38.41;nan;95176.56;6260608;22;20008;-84
2022/07/05 10:51:03;;;;;;;12.52;4.47;;;;;;;38.72;nan;95218.16;6233604;22;20101;-83
2022/07/05 10:54:09;;;;;;;8.13;4.78;;;;;;;38.67;nan;95214.00;6232438;22;20444;-83
2022/07/05 10:56:36;;;;;;;16.63;4.78;;;;;;;38.64;nan;95223.19;6231961;22;20098;-83
2022/07/05 10:59:12;;;;;;;16.92;5.50;;;;;;;38.49;nan;95150.13;6231984;22;20019;-83
2022/07/05 11:01:41;;;;;;;12.73;4.57;;;;;;;38.57;nan;95193.78;6232452;22;20019;-83
2022/07/05 11:04:12;;;;;;;8.00;4.32;;;;;;;38.44;nan;95153.50;6260393;22;20086;-83
2022/07/05 11:06:37;;;;;;;8.45;4.80;;;;;;;38.30;nan;95207.44;6233543;22;20063;-83
2022/07/05 11:09:03;;;;;;;10.40;5.47;;;;;;;38.78;nan;95205.25;6260373;22;20069;-83
2022/07/05 11:11:30;;;;;;;9.88;5.03;;;;;;;39.09;nan;95196.91;6232560;22;20045;-83
2022/07/05 11:14:00;;;;;;;10.10;4.72;;;;;;;38.87;nan;95144.28;6232732;22;20031;-84
2022/07/05 11:16:34;;;;;;;7.82;4.53;;;;;;;38.82;nan;95145.69;6233465;22;20027;-83
2022/07/05 11:19:17;;;;;;;7.82;4.40;;;;;;;38.94;nan;95189.16;6233972;22;20512;-84
2022/07/05 11:22:05;;;;;;;9.63;4.30;;;;;;;39.06;nan;95192.28;6232498;22;20007;-83
2022/07/05 11:24:32;;;;;;;8.82;3.83;;;;;;;39.26;nan;95159.34;6260210;22;20014;-83
2022/07/05 11:26:59;;;;;;;9.27;4.05;;;;;;;39.57;nan;95173.13;6261088;22;20082;-83
2022/07/05 11:29:44;;;;;;;8.90;4.78;;;;;;;39.74;nan;95177.91;6260656;22;20007;-84
2022/07/05 11:32:13;;;;;;;10.50;4.60;;;;;;;39.55;nan;95175.56;6233061;22;20043;-84
2022/07/05 11:34:39;;;;;;;10.55;4.40;;;;;;;38.75;nan;95100.84;6260596;22;20477;-84
2022/07/05 11:37:24;;;;;;;10.52;4.50;;;;;;;39.45;nan;95176.78;6233613;22;20231;-84
2022/07/05 11:40:14;;;;;;;12.15;5.00;;;;;;;39.08;nan;95179.50;6261044;22;20112;-84
2022/07/05 11:42:50;;;;;;;9.75;4.22;;;;;;;38.46;nan;95131.66;6222978;22;20480;-84
2022/07/05 11:45:17;;;;;;;8.18;4.35;;;;;;;38.57;nan;95162.53;6231796;22;20095;-84
2022/07/05 11:47:42;;;;;;;10.70;4.20;;;;;;;38.86;nan;95168.47;6231958;22;20016;-84
2022/07/05 11:50:10;;;;;;;9.27;4.80;;;;;;;38.57;nan;95105.09;6231460;22;20022;-83
2022/07/05 11:52:37;;;;;;;9.30;4.18;;;;;;;38.80;nan;95089.16;6232176;22;20015;-84